createdAt,value
2023-04-10T00:01:35.788Z,24.47
2023-04-10T00:04:06.127Z,23.37
2023-04-10T00:06:34.198Z,25.63
2023-04-10T00:09:01.991Z,24.70
2023-04-10T00:11:30.961Z,24.33
2023-04-10T00:13:58.732Z,24.40
2023-04-10T00:16:28.535Z,22.63
2023-04-10T00:18:56.577Z,24.53
2023-04-10T00:21:26.313Z,23.53
2023-04-10T00:23:54.689Z,27.07
2023-04-10T00:26:23.941Z,22.70
2023-04-10T00:28:51.754Z,23.80
2023-04-10T00:31:19.408Z,23.70
2023-04-10T00:33:48.022Z,25.50
2023-04-10T00:36:15.978Z,24.63
2023-04-10T00:38:45.524Z,27.50
2023-04-10T00:41:13.445Z,26.17
2023-04-10T00:43:41.142Z,30.57
2023-04-10T00:46:09.164Z,26.47
2023-04-10T00:48:37.840Z,25.37
2023-04-10T00:51:05.967Z,25.23
2023-04-10T00:53:33.929Z,25.67
2023-04-10T00:56:03.469Z,27.00
2023-04-10T00:58:31.451Z,25.13
2023-04-10T01:00:59.450Z,24.73
2023-04-10T01:03:28.015Z,25.23
2023-04-10T01:06:00.232Z,25.10
2023-04-10T01:08:32.649Z,24.00
2023-04-10T01:11:02.795Z,25.27
2023-04-10T01:13:35.852Z,26.50
2023-04-10T01:16:07.136Z,23.60
2023-04-10T01:18:42.751Z,23.80
2023-04-10T01:21:12.199Z,22.90
2023-04-10T01:23:47.368Z,25.23
2023-04-10T01:26:17.348Z,27.70
2023-04-10T01:29:00.137Z,21.73
2023-04-10T01:31:30.787Z,21.77
2023-04-10T01:34:02.685Z,22.33
2023-04-10T01:36:32.877Z,21.47
2023-04-10T01:39:01.198Z,22.83
2023-04-10T01:41:29.908Z,21.57
2023-04-10T01:43:59.989Z,21.53
2023-04-10T01:46:30.046Z,21.50
2023-04-10T01:48:59.964Z,24.93
2023-04-10T01:51:28.722Z,21.80
2023-04-10T01:53:57.118Z,21.60
2023-04-10T01:56:28.912Z,31.27
2023-04-10T01:58:57.740Z,23.70
2023-04-10T02:01:30.216Z,23.37
2023-04-10T02:03:59.488Z,23.57
2023-04-10T02:06:31.277Z,25.17
2023-04-10T02:09:04.104Z,22.23
2023-04-10T02:11:35.326Z,22.87
2023-04-10T02:14:05.187Z,23.27
2023-04-10T02:16:34.782Z,22.60
2023-04-10T02:19:03.207Z,23.80
2023-04-10T02:21:31.470Z,25.03
2023-04-10T02:23:59.561Z,23.63
2023-04-10T02:26:27.566Z,23.73
2023-04-10T02:28:55.999Z,24.33
2023-04-10T02:31:25.302Z,26.03
2023-04-10T02:33:54.905Z,25.33
2023-04-10T02:36:23.190Z,24.63
2023-04-10T02:38:51.142Z,26.53
2023-04-10T02:41:18.888Z,25.97
2023-04-10T02:43:46.889Z,27.57
2023-04-10T02:46:15.070Z,28.00
2023-04-10T02:48:43.161Z,27.27
2023-04-10T02:51:14.707Z,27.60
2023-04-10T02:53:42.472Z,29.70
2023-04-10T02:56:11.857Z,29.20
2023-04-10T02:58:45.518Z,27.80
2023-04-10T03:01:14.812Z,28.47
2023-04-10T03:03:45.482Z,27.20
2023-04-10T03:06:16.597Z,29.53
2023-04-10T03:08:47.025Z,29.10
2023-04-10T03:11:14.855Z,27.57
2023-04-10T03:13:42.616Z,27.03
2023-04-10T03:16:10.807Z,28.90
2023-04-10T03:18:38.806Z,28.80
2023-04-10T03:21:06.963Z,29.50
2023-04-10T03:23:36.878Z,30.30
2023-04-10T03:26:05.611Z,31.50
2023-04-10T03:28:38.063Z,31.50
2023-04-10T03:31:07.227Z,32.63
2023-04-10T03:33:37.053Z,33.33
2023-04-10T03:36:05.163Z,34.10
2023-04-10T03:38:34.303Z,34.83
2023-04-10T03:41:03.670Z,33.40
2023-04-10T03:43:34.341Z,35.00
2023-04-10T03:46:04.511Z,32.87
2023-04-10T03:48:33.404Z,32.10
2023-04-10T03:51:01.417Z,32.20
2023-04-10T03:53:29.338Z,30.80
2023-04-10T03:55:57.111Z,32.83
2023-04-10T03:58:27.517Z,33.23
2023-04-10T04:00:57.384Z,33.60
2023-04-10T04:03:38.780Z,34.60
2023-04-10T04:06:27.397Z,33.30
2023-04-10T04:09:18.090Z,33.50
2023-04-10T04:12:18.573Z,33.27
2023-04-10T04:14:47.865Z,36.93
2023-04-10T04:17:34.252Z,32.97
2023-04-10T04:20:05.924Z,34.40
2023-04-10T04:22:42.753Z,34.43
2023-04-10T04:25:19.817Z,34.33
2023-04-10T04:28:06.409Z,34.03
2023-04-10T04:30:52.018Z,35.50
2023-04-10T04:33:47.342Z,33.83
2023-04-10T04:36:38.442Z,35.33
2023-04-10T04:39:26.600Z,36.30
2023-04-10T04:42:04.552Z,38.67
2023-04-10T04:44:35.319Z,40.30
2023-04-10T04:47:13.120Z,38.73
2023-04-10T04:50:07.883Z,38.73
2023-04-10T04:53:02.303Z,38.80
2023-04-10T04:55:42.617Z,38.73
2023-04-10T04:58:22.060Z,37.00
2023-04-10T05:01:08.905Z,35.60
2023-04-10T05:03:56.732Z,35.47
2023-04-10T05:06:54.544Z,34.70
2023-04-10T05:09:41.546Z,32.80
2023-04-10T05:12:35.142Z,33.03
2023-04-10T05:15:38.448Z,34.13
2023-04-10T05:18:36.853Z,34.07
2023-04-10T05:21:32.925Z,38.77
2023-04-10T05:24:23.090Z,34.43
2023-04-10T05:27:12.687Z,36.70
2023-04-10T05:29:59.137Z,35.90
2023-04-10T05:32:41.263Z,33.97
2023-04-10T05:35:22.870Z,33.50
2023-04-10T05:38:15.579Z,33.40
2023-04-10T05:40:50.736Z,32.80
2023-04-10T05:43:36.912Z,31.23
2023-04-10T05:46:24.962Z,30.57
2023-04-10T05:48:55.853Z,29.00
2023-04-10T05:51:36.198Z,27.10
2023-04-10T05:54:34.699Z,28.40
2023-04-10T05:57:22.299Z,28.90
2023-04-10T06:00:08.072Z,27.40
2023-04-10T06:02:41.943Z,25.80
2023-04-10T06:05:17.762Z,25.47
2023-04-10T06:07:46.453Z,25.43
2023-04-10T06:10:17.100Z,24.80
2023-04-10T06:12:45.586Z,24.70
2023-04-10T06:15:14.688Z,24.70
2023-04-10T06:17:43.848Z,24.00
2023-04-10T06:20:12.064Z,22.70
2023-04-10T06:22:40.045Z,21.90
2023-04-10T06:25:08.795Z,21.43
2023-04-10T06:27:38.266Z,20.77
2023-04-10T06:30:10.888Z,20.13
2023-04-10T06:32:38.736Z,20.43
2023-04-10T06:35:07.421Z,18.80
2023-04-10T06:37:35.232Z,19.63
2023-04-10T06:40:06.040Z,20.77
2023-04-10T06:42:34.302Z,22.60
2023-04-10T06:45:10.602Z,19.40
2023-04-10T06:47:40.333Z,21.27
2023-04-10T06:50:08.224Z,21.80
2023-04-10T06:52:37.190Z,22.57
2023-04-10T06:55:05.303Z,23.23
2023-04-10T06:57:33.008Z,26.33
2023-04-10T07:00:00.705Z,28.33
2023-04-10T07:02:30.335Z,27.70
2023-04-10T07:04:58.555Z,27.73
2023-04-10T07:07:26.553Z,27.80
2023-04-10T07:09:54.242Z,29.37
2023-04-10T07:12:22.810Z,29.10
2023-04-10T07:14:50.526Z,28.90
2023-04-10T07:17:18.785Z,29.27
2023-04-10T07:19:47.837Z,28.97
2023-04-10T07:22:15.775Z,29.23
2023-04-10T07:24:44.259Z,29.13
2023-04-10T07:27:12.846Z,29.63
2023-04-10T07:29:40.698Z,29.80
2023-04-10T07:32:08.801Z,29.90
2023-04-10T07:34:36.615Z,29.00
2023-04-10T07:37:05.757Z,30.50
2023-04-10T07:39:33.540Z,29.47
2023-04-10T07:42:01.274Z,31.17
2023-04-10T07:44:29.645Z,31.70
2023-04-10T07:46:57.678Z,30.20
2023-04-10T07:49:25.449Z,31.70
2023-04-10T07:51:53.327Z,30.53
2023-04-10T07:54:22.569Z,30.73
2023-04-10T07:56:52.680Z,28.90
2023-04-10T07:59:20.802Z,30.70
2023-04-10T08:01:48.899Z,29.40
2023-04-10T08:04:17.073Z,29.93
2023-04-10T08:06:45.066Z,27.70
2023-04-10T08:09:13.136Z,27.20
2023-04-10T08:11:42.761Z,26.83
2023-04-10T08:14:10.546Z,26.20
2023-04-10T08:16:38.728Z,26.70
2023-04-10T08:19:06.520Z,28.23
2023-04-10T08:21:34.316Z,28.93
2023-04-10T08:24:03.264Z,29.00
2023-04-10T08:26:31.228Z,29.40
2023-04-10T08:29:01.226Z,28.93
2023-04-10T08:31:29.970Z,30.70
2023-04-10T08:33:58.869Z,29.00
2023-04-10T08:36:27.603Z,27.33
2023-04-10T08:38:55.262Z,26.10
2023-04-10T08:41:22.968Z,25.00
2023-04-10T08:43:51.589Z,24.10
2023-04-10T08:46:21.148Z,24.40
2023-04-10T08:48:49.562Z,21.30
2023-04-10T08:51:20.472Z,21.63
2023-04-10T08:53:59.586Z,20.13
2023-04-10T08:56:27.880Z,19.73
2023-04-10T08:58:55.534Z,18.80
2023-04-10T09:01:26.109Z,19.73
2023-04-10T09:03:54.328Z,19.53
2023-04-10T09:06:22.651Z,21.43
2023-04-10T09:08:50.903Z,20.63
2023-04-10T09:11:18.924Z,20.73
2023-04-10T09:13:47.010Z,19.37
2023-04-10T09:16:15.666Z,19.50
2023-04-10T09:18:47.717Z,19.67
2023-04-10T09:21:17.433Z,21.70
2023-04-10T09:23:47.674Z,23.97
2023-04-10T09:26:29.363Z,19.77
2023-04-10T09:29:20.084Z,20.23
2023-04-10T09:31:47.882Z,20.57
2023-04-10T09:34:18.285Z,17.53
2023-04-10T09:36:54.343Z,18.80
2023-04-10T09:39:22.437Z,19.80
2023-04-10T09:41:51.421Z,19.40
2023-04-10T09:44:20.622Z,20.77
2023-04-10T09:46:49.607Z,20.20
2023-04-10T09:49:18.852Z,20.60
2023-04-10T09:51:47.377Z,18.03
2023-04-10T09:54:15.249Z,19.17
2023-04-10T09:56:46.335Z,16.20
2023-04-10T09:59:14.825Z,17.50
2023-04-10T10:01:42.719Z,18.90
2023-04-10T10:04:11.199Z,17.37
2023-04-10T10:06:40.556Z,27.40
2023-04-10T10:09:08.502Z,19.37
2023-04-10T10:11:36.692Z,17.70
2023-04-10T10:14:07.777Z,24.73
2023-04-10T10:16:38.009Z,21.20
2023-04-10T10:19:10.510Z,20.80
2023-04-10T10:21:39.158Z,22.20
2023-04-10T10:24:10.364Z,17.20
2023-04-10T10:26:40.192Z,15.67
2023-04-10T10:29:12.158Z,15.93
2023-04-10T10:31:41.004Z,16.17
2023-04-10T10:34:10.089Z,15.60
2023-04-10T10:36:38.779Z,16.77
2023-04-10T10:39:14.497Z,18.93
2023-04-10T10:41:46.010Z,20.37
2023-04-10T10:44:15.733Z,12.47
2023-04-10T10:46:45.617Z,12.77
2023-04-10T10:49:13.377Z,14.13
2023-04-10T10:51:44.621Z,12.27
2023-04-10T10:54:31.475Z,13.90
2023-04-10T10:57:00.848Z,12.20
2023-04-10T10:59:46.915Z,12.53
2023-04-10T11:02:16.013Z,12.67
2023-04-10T11:04:44.786Z,11.60
2023-04-10T11:07:13.288Z,11.07
2023-04-10T11:09:48.565Z,11.90
2023-04-10T11:12:18.367Z,9.17
2023-04-10T11:14:46.370Z,11.37
2023-04-10T11:17:14.023Z,11.43
2023-04-10T11:20:01.578Z,12.37
2023-04-10T11:22:29.296Z,13.40
2023-04-10T11:25:00.682Z,12.57
2023-04-10T11:27:52.936Z,23.73
2023-04-10T11:30:27.922Z,11.83
2023-04-10T11:32:56.429Z,11.97
2023-04-10T11:35:24.916Z,13.10
2023-04-10T11:37:52.987Z,12.50
2023-04-10T11:40:21.148Z,13.60
2023-04-10T11:42:50.286Z,13.10
2023-04-10T11:45:27.395Z,13.10
2023-04-10T11:47:55.550Z,14.40
2023-04-10T11:50:23.266Z,13.70
2023-04-10T11:52:52.982Z,18.67
2023-04-10T11:55:37.695Z,13.70
2023-04-10T11:58:22.280Z,12.47
2023-04-10T12:00:57.329Z,12.20
2023-04-10T12:03:42.031Z,13.93
2023-04-10T12:06:11.790Z,13.87
2023-04-10T12:08:40.742Z,11.90
2023-04-10T12:11:09.762Z,12.30
2023-04-10T12:13:39.230Z,12.40
2023-04-10T12:16:08.759Z,9.87
2023-04-10T12:18:37.497Z,9.57
2023-04-10T12:21:06.773Z,9.10
2023-04-10T12:23:37.963Z,8.87
2023-04-10T12:26:10.605Z,9.30
2023-04-10T12:28:40.798Z,8.53
2023-04-10T12:31:08.908Z,8.27
2023-04-10T12:33:37.112Z,7.50
2023-04-10T12:36:05.234Z,8.50
2023-04-10T12:38:37.060Z,7.93
2023-04-10T12:41:06.181Z,8.60
2023-04-10T12:43:34.667Z,9.53
2023-04-10T12:46:04.318Z,9.80
2023-04-10T12:48:32.745Z,12.70
2023-04-10T12:51:00.611Z,8.93
2023-04-10T12:53:28.941Z,11.23
2023-04-10T12:56:03.771Z,8.73
2023-04-10T12:58:32.331Z,10.17
2023-04-10T13:01:01.660Z,8.93
2023-04-10T13:03:31.904Z,9.97
2023-04-10T13:06:00.058Z,8.90
2023-04-10T13:08:27.704Z,9.70
2023-04-10T13:11:17.774Z,10.27
2023-04-10T13:13:46.208Z,9.30
2023-04-10T13:16:13.977Z,8.57
2023-04-10T13:18:43.697Z,10.63
2023-04-10T13:21:11.349Z,8.10
2023-04-10T13:23:39.338Z,9.83
2023-04-10T13:26:07.317Z,9.20
2023-04-10T13:28:35.121Z,9.40
2023-04-10T13:31:02.888Z,9.60
2023-04-10T13:33:31.844Z,10.37
2023-04-10T13:36:01.444Z,9.60
2023-04-10T13:38:29.473Z,9.23
2023-04-10T13:40:57.155Z,9.73
2023-04-10T13:43:24.925Z,9.53
2023-04-10T13:45:52.880Z,8.97
2023-04-10T13:48:24.547Z,9.40
2023-04-10T13:50:57.544Z,8.70
2023-04-10T13:53:26.727Z,8.77
2023-04-10T13:55:54.535Z,8.57
2023-04-10T13:58:22.174Z,8.47
2023-04-10T14:00:50.217Z,7.53
2023-04-10T14:03:18.088Z,8.23
2023-04-10T14:05:45.875Z,10.50
2023-04-10T14:08:16.254Z,8.20
2023-04-10T14:10:46.109Z,8.03
2023-04-10T14:13:14.065Z,7.87
2023-04-10T14:15:42.037Z,7.90
2023-04-10T14:18:09.756Z,8.73
2023-04-10T14:20:37.425Z,8.10
2023-04-10T14:23:05.356Z,8.20
2023-04-10T14:25:32.975Z,7.53
2023-04-10T14:28:02.192Z,8.67
2023-04-10T14:30:31.135Z,9.20
2023-04-10T14:32:58.909Z,9.90
2023-04-10T14:35:26.897Z,9.30
2023-04-10T14:37:55.702Z,10.00
2023-04-10T14:40:23.334Z,8.97
2023-04-10T14:42:53.010Z,9.73
2023-04-10T14:45:23.544Z,10.10
2023-04-10T14:47:51.270Z,10.57
2023-04-10T14:50:18.945Z,10.20
2023-04-10T14:52:46.865Z,10.67
2023-04-10T14:55:14.776Z,9.90
2023-04-10T14:57:42.580Z,9.57
2023-04-10T15:00:11.483Z,11.00
2023-04-10T15:02:40.695Z,10.97
2023-04-10T15:05:08.586Z,10.70
2023-04-10T15:07:36.721Z,11.00
2023-04-10T15:10:04.880Z,10.50
2023-04-10T15:12:33.042Z,10.90
2023-04-10T15:15:00.887Z,10.30
2023-04-10T15:17:29.848Z,10.90
2023-04-10T15:19:58.918Z,10.50
2023-04-10T15:22:27.000Z,10.70
2023-04-10T15:24:54.879Z,10.13
2023-04-10T15:27:22.747Z,10.67
2023-04-10T15:29:50.840Z,9.67
2023-04-10T15:32:18.542Z,10.50
2023-04-10T15:34:46.289Z,9.67
2023-04-10T15:37:17.475Z,10.73
2023-04-10T15:39:45.224Z,10.30
2023-04-10T15:42:13.209Z,10.27
2023-04-10T15:44:41.050Z,10.60
2023-04-10T15:47:08.725Z,9.60
2023-04-10T15:49:38.504Z,9.87
2023-04-10T15:52:07.002Z,9.43
2023-04-10T15:54:36.085Z,9.90
2023-04-10T15:57:04.231Z,9.47
2023-04-10T15:59:33.719Z,9.90
2023-04-10T16:02:01.758Z,10.00
2023-04-10T16:04:29.923Z,10.23
2023-04-10T16:06:58.268Z,9.90
2023-04-10T16:09:26.705Z,10.00
2023-04-10T16:11:57.781Z,9.13
2023-04-10T16:14:25.703Z,10.00
2023-04-10T16:16:53.822Z,9.60
2023-04-10T16:19:22.025Z,9.83
2023-04-10T16:21:51.111Z,10.70
2023-04-10T16:24:18.780Z,9.60
2023-04-10T16:26:46.524Z,10.47
2023-04-10T16:29:19.868Z,10.33
2023-04-10T16:31:48.011Z,10.10
2023-04-10T16:34:15.963Z,10.33
2023-04-10T16:36:44.412Z,10.50
2023-04-10T16:39:12.191Z,10.30
2023-04-10T16:41:40.296Z,11.20
2023-04-10T16:44:08.299Z,11.53
2023-04-10T16:46:37.391Z,11.97
2023-04-10T16:49:05.300Z,15.70
2023-04-10T16:51:33.558Z,12.43
2023-04-10T16:54:01.371Z,12.90
2023-04-10T16:56:29.033Z,11.97
2023-04-10T16:58:57.594Z,12.60
2023-04-10T17:01:26.008Z,11.50
2023-04-10T17:03:55.366Z,11.00
2023-04-10T17:06:24.640Z,10.53
2023-04-10T17:08:52.345Z,10.20
2023-04-10T17:11:20.313Z,11.30
2023-04-10T17:13:48.505Z,12.27
2023-04-10T17:16:16.342Z,13.43
2023-04-10T17:18:44.278Z,14.40
2023-04-10T17:21:13.810Z,12.37
2023-04-10T17:23:41.688Z,12.77
2023-04-10T17:26:13.977Z,11.30
2023-04-10T17:28:44.330Z,11.60
2023-04-10T17:31:12.594Z,11.03
2023-04-10T17:33:42.098Z,10.80
2023-04-10T17:36:11.919Z,11.27
2023-04-10T17:38:41.816Z,10.60
2023-04-10T17:41:10.502Z,11.60
2023-04-10T17:43:38.349Z,10.80
2023-04-10T17:46:06.301Z,10.60
2023-04-10T17:48:34.620Z,12.40
2023-04-10T17:51:05.485Z,10.70
2023-04-10T17:53:33.220Z,11.50
2023-04-10T17:56:02.277Z,13.03
2023-04-10T17:58:30.718Z,14.40
2023-04-10T18:00:58.674Z,15.23
2023-04-10T18:03:27.274Z,15.03
2023-04-10T18:05:54.986Z,13.17
2023-04-10T18:08:22.937Z,13.30
2023-04-10T18:10:51.436Z,12.10
2023-04-10T18:13:20.618Z,12.63
2023-04-10T18:15:48.645Z,12.43
2023-04-10T18:18:16.390Z,13.80
2023-04-10T18:20:43.995Z,14.33
2023-04-10T18:23:11.926Z,14.27
2023-04-10T18:25:39.573Z,13.80
2023-04-10T18:28:13.743Z,13.30
2023-04-10T18:30:44.868Z,12.70
2023-04-10T18:33:13.912Z,16.00
2023-04-10T18:35:42.159Z,16.67
2023-04-10T18:38:09.941Z,16.00
2023-04-10T18:40:38.103Z,16.60
2023-04-10T18:43:05.926Z,13.37
2023-04-10T18:45:34.253Z,14.47
2023-04-10T18:48:03.606Z,13.77
2023-04-10T18:50:34.791Z,13.03
2023-04-10T18:53:02.792Z,12.00
2023-04-10T18:55:30.951Z,11.27
2023-04-10T18:57:58.800Z,11.53
2023-04-10T19:00:26.517Z,17.63
2023-04-10T19:02:54.479Z,12.50
2023-04-10T19:05:23.766Z,11.37
2023-04-10T19:08:02.925Z,10.37
2023-04-10T19:10:32.770Z,11.50
2023-04-10T19:13:00.793Z,11.60
2023-04-10T19:15:28.761Z,10.90
2023-04-10T19:17:56.731Z,12.00
2023-04-10T19:20:50.518Z,11.20
2023-04-10T19:23:13.895Z,10.83
2023-04-10T19:25:42.507Z,9.70
2023-04-10T19:28:10.548Z,10.50
2023-04-10T19:30:38.355Z,11.00
2023-04-10T19:33:06.102Z,9.67
2023-04-10T19:35:35.178Z,10.60
2023-04-10T19:38:03.129Z,11.17
2023-04-10T19:40:30.820Z,10.53
2023-04-10T19:43:00.355Z,10.53
2023-04-10T19:45:29.500Z,10.93
2023-04-10T19:47:57.911Z,10.20
2023-04-10T19:50:25.578Z,10.80
2023-04-10T19:52:54.991Z,10.53
2023-04-10T19:55:23.051Z,10.53
2023-04-10T19:57:51.021Z,9.70
2023-04-10T20:00:19.340Z,10.37
2023-04-10T20:02:47.294Z,9.87
2023-04-10T20:05:15.173Z,9.60
2023-04-10T20:07:43.148Z,10.20
2023-04-10T20:10:12.341Z,9.40
2023-04-10T20:12:40.443Z,9.40
2023-04-10T20:15:09.438Z,10.20
2023-04-10T20:17:38.471Z,10.17
2023-04-10T20:20:06.772Z,10.40
2023-04-10T20:22:34.804Z,9.20
2023-04-10T20:25:02.546Z,9.80
2023-04-10T20:27:31.697Z,9.33
2023-04-10T20:30:00.006Z,10.33
2023-04-10T20:32:27.685Z,9.17
2023-04-10T20:34:55.622Z,10.60
2023-04-10T20:37:23.637Z,9.17
2023-04-10T20:39:51.512Z,11.90
2023-04-10T20:42:19.241Z,8.67
2023-04-10T20:44:48.265Z,9.30
2023-04-10T20:47:16.132Z,10.60
2023-04-10T20:49:44.143Z,9.60
2023-04-10T20:52:12.054Z,9.50
2023-04-10T20:54:39.945Z,9.17
2023-04-10T20:57:07.582Z,8.80
2023-04-10T20:59:36.835Z,8.80
2023-04-10T21:02:06.204Z,9.90
2023-04-10T21:04:33.993Z,9.37
2023-04-10T21:07:01.704Z,9.57
2023-04-10T21:09:29.499Z,7.93
2023-04-10T21:11:57.666Z,8.97
2023-04-10T21:14:26.486Z,11.10
2023-04-10T21:16:54.358Z,8.60
2023-04-10T21:19:23.685Z,11.97
2023-04-10T21:21:51.666Z,9.70
2023-04-10T21:24:19.388Z,8.60
2023-04-10T21:26:47.002Z,8.70
2023-04-10T21:29:14.840Z,8.50
2023-04-10T21:31:42.607Z,8.50
2023-04-10T21:34:10.501Z,9.17
2023-04-10T21:36:40.319Z,7.97
2023-04-10T21:39:09.309Z,9.50
2023-04-10T21:41:37.455Z,8.20
2023-04-10T21:44:05.792Z,8.10
2023-04-10T21:46:33.493Z,8.50
2023-04-10T21:49:01.722Z,11.83
2023-04-10T21:51:29.807Z,8.27
2023-04-10T21:53:58.832Z,8.60
2023-04-10T21:56:26.632Z,7.50
2023-04-10T21:58:55.146Z,9.20
2023-04-10T22:01:23.004Z,8.77
2023-04-10T22:03:51.642Z,9.13
2023-04-10T22:06:19.826Z,8.23
2023-04-10T22:08:47.530Z,8.40
2023-04-10T22:11:17.352Z,8.90
2023-04-10T22:13:45.336Z,9.20
2023-04-10T22:16:13.066Z,8.83
2023-04-10T22:18:41.345Z,9.20
2023-04-10T22:21:09.345Z,8.63
2023-04-10T22:23:37.090Z,9.10
2023-04-10T22:26:04.765Z,8.90
2023-04-10T22:28:33.928Z,9.00
2023-04-10T22:31:02.000Z,8.90
2023-04-10T22:33:32.693Z,8.60
2023-04-10T22:36:00.862Z,8.73
2023-04-10T22:38:28.747Z,8.53
2023-04-10T22:40:56.790Z,8.20
2023-04-10T22:43:25.004Z,8.37
2023-04-10T22:45:54.163Z,9.20
2023-04-10T22:48:22.243Z,9.40
2023-04-10T22:50:50.126Z,9.30
2023-04-10T22:53:17.914Z,8.50
2023-04-10T22:55:45.693Z,9.73
2023-04-10T22:58:13.597Z,9.40
2023-04-10T23:00:41.535Z,9.13
2023-04-10T23:03:11.303Z,9.00
2023-04-10T23:05:39.510Z,9.37
2023-04-10T23:08:07.334Z,9.03
2023-04-10T23:10:35.575Z,8.70
2023-04-10T23:13:03.711Z,9.13
2023-04-10T23:15:31.685Z,9.13
2023-04-10T23:17:59.783Z,8.30
2023-04-10T23:20:29.482Z,9.27
2023-04-10T23:22:57.344Z,8.93
2023-04-10T23:25:25.640Z,8.97
2023-04-10T23:27:54.103Z,8.30
2023-04-10T23:30:22.140Z,9.57
2023-04-10T23:32:50.186Z,10.50
2023-04-10T23:35:21.172Z,9.13
2023-04-10T23:37:50.564Z,9.47
2023-04-10T23:40:18.915Z,8.87
2023-04-10T23:42:47.114Z,8.43
2023-04-10T23:45:15.040Z,8.93
2023-04-10T23:47:43.347Z,8.80
2023-04-10T23:50:12.092Z,8.30
2023-04-10T23:52:40.065Z,8.70
2023-04-10T23:55:09.656Z,8.70
2023-04-10T23:57:38.015Z,8.47
